createdAt,value
2022-09-16T00:02:17.521Z,10.86
2022-09-16T00:05:20.634Z,10.91
2022-09-16T00:08:22.872Z,10.93
2022-09-16T00:11:24.794Z,10.93
2022-09-16T00:14:26.390Z,10.97
2022-09-16T00:17:30.058Z,10.97
2022-09-16T00:20:32.950Z,10.98
2022-09-16T00:23:34.695Z,10.99
2022-09-16T00:26:38.562Z,10.97
2022-09-16T00:29:40.503Z,10.98
2022-09-16T00:32:41.997Z,10.99
2022-09-16T00:35:45.148Z,10.98
2022-09-16T00:38:50.537Z,10.98
2022-09-16T00:41:52.345Z,10.96
2022-09-16T00:44:56.252Z,10.95
2022-09-16T00:47:59.584Z,10.94
2022-09-16T00:51:04.919Z,10.94
2022-09-16T00:54:10.006Z,10.94
2022-09-16T00:57:13.500Z,10.95
2022-09-16T01:00:15.145Z,10.96
2022-09-16T01:03:16.827Z,10.99
2022-09-16T01:06:19.979Z,11.01
2022-09-16T01:09:23.389Z,10.99
2022-09-16T01:12:27.873Z,11.01
2022-09-16T01:15:32.713Z,10.99
2022-09-16T01:18:39.893Z,10.96
2022-09-16T01:21:45.411Z,10.93
2022-09-16T01:24:50.746Z,10.92
2022-09-16T01:28:09.117Z,10.91
2022-09-16T01:31:15.783Z,10.91
2022-09-16T01:34:21.051Z,10.88
2022-09-16T01:37:29.158Z,10.92
2022-09-16T01:40:34.210Z,10.91
2022-09-16T01:43:44.313Z,10.94
2022-09-16T01:46:48.696Z,10.93
2022-09-16T01:49:57.974Z,10.94
2022-09-16T01:53:05.000Z,10.94
2022-09-16T01:56:09.643Z,10.94
2022-09-16T01:59:16.653Z,10.95
2022-09-16T02:02:21.507Z,10.94
2022-09-16T02:05:24.800Z,10.94
2022-09-16T02:08:28.833Z,10.96
2022-09-16T02:11:30.866Z,10.96
2022-09-16T02:14:33.881Z,10.99
2022-09-16T02:17:38.881Z,11.00
2022-09-16T02:20:42.778Z,10.90
2022-09-16T02:23:46.484Z,10.83
2022-09-16T02:26:52.020Z,10.82
2022-09-16T02:29:56.433Z,10.79
2022-09-16T02:33:00.396Z,10.74
2022-09-16T02:36:03.421Z,10.73
2022-09-16T02:39:08.732Z,10.68
2022-09-16T02:42:10.383Z,10.68
2022-09-16T02:45:12.607Z,10.68
2022-09-16T02:48:20.386Z,10.68
2022-09-16T02:51:28.554Z,10.68
2022-09-16T02:54:36.462Z,10.65
2022-09-16T02:57:38.321Z,10.67
2022-09-16T03:00:41.479Z,10.68
2022-09-16T03:03:44.465Z,10.68
2022-09-16T03:06:46.402Z,10.65
2022-09-16T03:09:49.299Z,10.64
2022-09-16T03:12:56.551Z,10.65
2022-09-16T03:16:04.418Z,10.64
2022-09-16T03:19:12.828Z,10.60
2022-09-16T03:22:19.245Z,10.63
2022-09-16T03:25:25.847Z,10.64
2022-09-16T03:28:32.280Z,10.63
2022-09-16T03:31:37.057Z,10.59
2022-09-16T03:34:45.177Z,10.59
2022-09-16T03:37:49.007Z,10.54
2022-09-16T03:40:50.993Z,10.51
2022-09-16T03:43:53.253Z,10.51
2022-09-16T03:46:54.660Z,10.50
2022-09-16T03:50:04.707Z,10.53
2022-09-16T03:53:06.195Z,10.56
2022-09-16T03:56:07.905Z,10.56
2022-09-16T03:59:09.621Z,10.57
2022-09-16T04:02:11.241Z,10.59
2022-09-16T04:05:14.204Z,10.59
2022-09-16T04:08:15.670Z,10.57
2022-09-16T04:11:17.738Z,10.58
2022-09-16T04:14:20.346Z,10.62
2022-09-16T04:17:22.124Z,10.59
2022-09-16T04:20:25.047Z,10.57
2022-09-16T04:23:27.245Z,10.62
2022-09-16T04:26:28.685Z,10.61
2022-09-16T04:29:31.214Z,10.59
2022-09-16T04:32:32.680Z,10.58
2022-09-16T04:35:35.543Z,10.56
2022-09-16T04:38:37.482Z,10.53
2022-09-16T04:41:39.181Z,10.56
2022-09-16T04:44:40.674Z,10.52
2022-09-16T04:47:42.866Z,10.50
2022-09-16T04:50:45.761Z,10.47
2022-09-16T04:53:47.333Z,10.48
2022-09-16T04:56:48.913Z,10.44
2022-09-16T04:59:50.400Z,10.40
2022-09-16T05:02:54.508Z,10.31
2022-09-16T05:06:08.217Z,10.22
2022-09-16T05:09:13.483Z,10.23
2022-09-16T05:12:14.908Z,10.19
2022-09-16T05:15:16.542Z,10.19
2022-09-16T05:18:18.229Z,10.17
2022-09-16T05:21:22.163Z,10.11
2022-09-16T05:24:26.490Z,10.14
2022-09-16T05:27:32.458Z,10.20
2022-09-16T05:30:34.009Z,10.25
2022-09-16T05:33:35.776Z,10.26
2022-09-16T05:36:39.256Z,10.17
2022-09-16T05:39:40.912Z,10.18
2022-09-16T05:42:42.535Z,10.18
2022-09-16T05:45:44.276Z,10.17
2022-09-16T05:48:46.965Z,10.16
2022-09-16T05:51:50.407Z,10.16
2022-09-16T05:54:51.885Z,10.20
2022-09-16T05:57:53.346Z,10.20
2022-09-16T06:00:58.324Z,10.22
2022-09-16T06:04:00.944Z,10.26
2022-09-16T06:07:03.859Z,10.25
2022-09-16T06:10:06.004Z,10.23
2022-09-16T06:13:07.832Z,10.24
2022-09-16T06:16:10.499Z,10.31
2022-09-16T06:19:13.639Z,10.33
2022-09-16T06:22:16.907Z,10.36
2022-09-16T06:25:18.930Z,10.37
2022-09-16T06:28:20.832Z,10.41
2022-09-16T06:31:23.787Z,10.41
2022-09-16T06:34:26.880Z,10.42
2022-09-16T06:37:30.369Z,10.40
2022-09-16T06:40:31.828Z,10.43
2022-09-16T06:43:34.248Z,10.44
2022-09-16T06:46:35.875Z,10.48
2022-09-16T06:49:37.524Z,10.47
2022-09-16T06:52:40.547Z,10.54
2022-09-16T06:55:42.045Z,10.57
2022-09-16T06:58:44.979Z,10.56
2022-09-16T07:01:46.733Z,10.57
2022-09-16T07:04:48.451Z,10.56
2022-09-16T07:07:53.053Z,10.56
2022-09-16T07:10:58.101Z,10.53
2022-09-16T07:14:02.835Z,10.47
2022-09-16T07:17:04.373Z,10.48
2022-09-16T07:20:06.565Z,10.48
2022-09-16T07:23:09.532Z,10.51
2022-09-16T07:26:11.988Z,10.50
2022-09-16T07:29:14.947Z,10.45
2022-09-16T07:32:16.805Z,10.47
2022-09-16T07:35:18.575Z,10.53
2022-09-16T07:38:21.681Z,10.51
2022-09-16T07:41:24.178Z,10.49
2022-09-16T07:44:25.762Z,10.55
2022-09-16T07:47:27.210Z,10.61
2022-09-16T07:50:28.857Z,10.65
2022-09-16T07:53:32.499Z,10.64
2022-09-16T07:56:35.073Z,10.71
2022-09-16T07:59:36.603Z,10.79
2022-09-16T08:02:38.620Z,10.81
2022-09-16T08:05:40.332Z,10.83
2022-09-16T08:08:44.323Z,10.93
2022-09-16T08:11:46.168Z,10.99
2022-09-16T08:14:48.145Z,11.02
2022-09-16T08:17:50.017Z,11.02
2022-09-16T08:20:51.618Z,11.07
2022-09-16T08:23:54.954Z,11.13
2022-09-16T08:30:06.030Z,11.19
2022-09-16T08:33:07.768Z,11.18
2022-09-16T08:36:12.007Z,11.20
2022-09-16T08:39:15.221Z,11.20
2022-09-16T08:42:29.890Z,11.24
2022-09-16T08:45:36.119Z,11.27
2022-09-16T08:48:42.267Z,11.35
2022-09-16T08:51:46.690Z,11.43
2022-09-16T08:54:51.801Z,11.53
2022-09-16T08:57:57.410Z,11.65
2022-09-16T09:01:01.131Z,11.66
2022-09-16T09:04:03.184Z,11.73
2022-09-16T09:07:09.887Z,11.75
2022-09-16T09:10:18.335Z,11.84
2022-09-16T09:13:29.039Z,11.82
2022-09-16T09:16:37.821Z,11.79
2022-09-16T09:19:46.510Z,11.99
2022-09-16T09:23:04.897Z,12.04
2022-09-16T09:26:11.702Z,12.16
2022-09-16T09:29:25.838Z,12.48
2022-09-16T09:32:46.013Z,12.53
2022-09-16T09:35:57.334Z,12.69
2022-09-16T09:39:06.472Z,12.83
2022-09-16T09:42:13.054Z,12.59
2022-09-16T09:45:20.493Z,12.41
2022-09-16T09:48:23.841Z,12.27
2022-09-16T09:51:29.244Z,12.12
2022-09-16T09:54:31.716Z,12.12
2022-09-16T09:57:38.030Z,12.28
2022-09-16T10:00:39.520Z,12.46
2022-09-16T10:03:41.317Z,12.59
2022-09-16T10:06:43.701Z,12.79
2022-09-16T10:09:48.013Z,12.92
2022-09-16T10:12:51.548Z,12.97
2022-09-16T10:15:55.605Z,13.02
2022-09-16T10:19:00.820Z,13.12
2022-09-16T10:22:09.807Z,13.06
2022-09-16T10:25:22.207Z,13.11
2022-09-16T10:28:26.497Z,13.02
2022-09-16T10:31:33.576Z,13.21
2022-09-16T10:34:38.337Z,13.47
2022-09-16T10:37:40.932Z,13.50
2022-09-16T10:40:50.843Z,13.40
2022-09-16T10:43:54.761Z,13.25
2022-09-16T10:46:57.787Z,13.25
2022-09-16T10:50:02.109Z,13.25
2022-09-16T10:53:04.188Z,13.33
2022-09-16T10:56:06.399Z,13.44
2022-09-16T10:59:10.898Z,13.56
2022-09-16T11:05:28.190Z,13.68
2022-09-16T11:08:48.365Z,13.77
2022-09-16T11:11:56.940Z,13.69
2022-09-16T11:15:05.872Z,13.65
2022-09-16T11:18:20.424Z,13.77
2022-09-16T11:21:36.339Z,13.66
2022-09-16T11:24:46.210Z,13.75
2022-09-16T11:27:54.862Z,13.98
2022-09-16T11:31:04.230Z,14.14
2022-09-16T11:34:10.256Z,14.19
2022-09-16T11:37:17.721Z,14.24
2022-09-16T11:40:25.887Z,14.19
2022-09-16T11:43:38.999Z,14.09
2022-09-16T11:46:46.845Z,13.95
2022-09-16T11:49:57.999Z,14.09
2022-09-16T11:53:08.384Z,14.24
2022-09-16T11:56:14.179Z,14.33
2022-09-16T11:59:20.916Z,14.41
2022-09-16T12:02:26.367Z,14.42
2022-09-16T12:05:30.851Z,14.41
2022-09-16T12:08:34.762Z,14.56
2022-09-16T12:11:39.698Z,14.51
2022-09-16T12:14:42.901Z,14.60
2022-09-16T12:17:50.672Z,14.62
2022-09-16T12:20:54.435Z,14.61
2022-09-16T12:23:57.856Z,14.47
2022-09-16T12:27:04.168Z,14.35
2022-09-16T12:30:12.000Z,14.17
2022-09-16T12:33:17.830Z,14.03
2022-09-16T12:36:23.864Z,13.97
2022-09-16T12:39:25.805Z,13.96
2022-09-16T12:42:54.097Z,14.02
2022-09-16T12:46:10.537Z,14.26
2022-09-16T12:49:26.734Z,14.16
2022-09-16T12:52:38.032Z,13.83
2022-09-16T12:55:56.031Z,13.62
2022-09-16T12:59:07.101Z,13.48
2022-09-16T13:02:12.604Z,13.47
2022-09-16T13:05:20.700Z,13.38
2022-09-16T13:08:24.215Z,13.47
2022-09-16T13:12:16.635Z,13.59
2022-09-16T13:14:51.571Z,13.53
2022-09-16T13:17:54.791Z,13.57
2022-09-16T13:20:59.112Z,13.69
2022-09-16T13:24:04.178Z,13.73
2022-09-16T13:27:23.020Z,13.71
2022-09-16T13:30:35.003Z,13.78
2022-09-16T13:33:37.002Z,13.81
2022-09-16T13:36:42.042Z,13.98
2022-09-16T13:39:47.205Z,14.07
2022-09-16T13:42:51.630Z,13.94
2022-09-16T13:46:02.210Z,13.84
2022-09-16T13:49:11.874Z,13.92
2022-09-16T13:52:19.271Z,14.09
2022-09-16T13:55:22.041Z,14.04
2022-09-16T13:58:28.423Z,14.05
2022-09-16T14:01:48.881Z,14.10
2022-09-16T14:05:05.337Z,14.26
2022-09-16T14:08:12.139Z,14.45
2022-09-16T14:11:16.498Z,14.41
2022-09-16T14:14:43.193Z,14.38
2022-09-16T14:17:42.538Z,14.32
2022-09-16T14:20:52.986Z,14.34
2022-09-16T14:24:06.723Z,14.33
2022-09-16T14:27:18.353Z,14.32
2022-09-16T14:30:19.984Z,14.45
2022-09-16T14:33:24.420Z,14.46
2022-09-16T14:36:27.180Z,14.42
2022-09-16T14:39:30.780Z,14.34
2022-09-16T14:42:32.570Z,14.41
2022-09-16T14:45:36.598Z,14.61
2022-09-16T14:48:40.761Z,14.66
2022-09-16T14:51:44.111Z,14.81
2022-09-16T14:54:47.695Z,14.62
2022-09-16T14:57:49.784Z,14.32
2022-09-16T15:00:53.756Z,14.32
2022-09-16T15:03:57.926Z,14.35
2022-09-16T15:10:21.932Z,14.09
2022-09-16T15:13:25.704Z,14.05
2022-09-16T15:16:28.541Z,14.01
2022-09-16T15:19:33.179Z,13.93
2022-09-16T15:22:39.893Z,13.91
2022-09-16T15:25:51.961Z,13.88
2022-09-16T15:28:55.674Z,13.60
2022-09-16T15:32:07.222Z,13.38
2022-09-16T15:35:12.005Z,13.11
2022-09-16T15:38:20.869Z,12.93
2022-09-16T15:41:24.326Z,12.77
2022-09-16T15:44:27.574Z,12.65
2022-09-16T15:47:30.698Z,12.53
2022-09-16T15:50:39.212Z,12.43
2022-09-16T15:53:44.142Z,12.35
2022-09-16T15:56:53.343Z,12.35
2022-09-16T16:00:06.833Z,12.38
2022-09-16T16:03:17.954Z,12.47
2022-09-16T16:06:20.348Z,12.36
2022-09-16T16:09:37.073Z,12.46
2022-09-16T16:12:42.836Z,12.45
2022-09-16T16:19:02.063Z,12.36
2022-09-16T16:22:10.430Z,12.34
2022-09-16T16:25:13.726Z,12.39
2022-09-16T16:28:21.415Z,12.44
2022-09-16T16:31:25.981Z,12.42
2022-09-16T16:34:28.041Z,12.42
2022-09-16T16:37:47.253Z,12.39
2022-09-16T16:40:50.260Z,12.39
2022-09-16T16:43:53.902Z,12.42
2022-09-16T16:46:56.293Z,12.37
2022-09-16T16:50:00.891Z,12.32
2022-09-16T16:53:02.566Z,12.29
2022-09-16T16:56:06.171Z,12.24
2022-09-16T17:03:12.755Z,12.15
2022-09-16T17:06:15.089Z,12.13
2022-09-16T17:09:17.211Z,12.10
2022-09-16T17:12:18.696Z,12.04
2022-09-16T17:18:33.573Z,11.95
2022-09-16T17:24:49.360Z,11.87
2022-09-16T17:27:51.444Z,11.87
2022-09-16T17:30:56.550Z,11.87
2022-09-16T17:43:51.632Z,11.56
2022-09-16T17:47:15.855Z,11.41
2022-09-16T18:16:22.287Z,11.04
2022-09-16T18:29:14.256Z,11.04
2022-09-16T18:32:17.563Z,11.05
2022-09-16T18:35:19.461Z,11.07
2022-09-16T18:38:21.406Z,11.07
2022-09-16T18:44:33.754Z,11.06
2022-09-16T18:50:54.199Z,11.14
2022-09-16T19:10:28.249Z,11.27
2022-09-16T19:13:30.203Z,11.19
2022-09-16T19:16:32.599Z,11.11
2022-09-16T19:19:34.779Z,11.10
2022-09-16T19:45:30.520Z,10.61
2022-09-16T19:48:33.408Z,10.58
2022-09-16T19:51:35.364Z,10.54
2022-09-16T19:54:37.125Z,10.48
2022-09-16T19:57:38.934Z,10.44
2022-09-16T20:00:55.851Z,10.45
2022-09-16T20:03:58.305Z,10.41
2022-09-16T20:07:00.179Z,10.41
2022-09-16T20:10:01.966Z,10.36
2022-09-16T20:13:03.857Z,10.32
2022-09-16T20:16:07.822Z,10.26
2022-09-16T20:19:13.726Z,10.20
2022-09-16T20:22:15.534Z,10.16
2022-09-16T20:25:40.736Z,10.12
2022-09-16T20:28:44.375Z,10.06
2022-09-16T20:31:49.237Z,10.03
2022-09-16T20:34:51.266Z,10.06
2022-09-16T20:37:53.143Z,10.03
2022-09-16T20:40:55.229Z,9.99
2022-09-16T20:44:03.311Z,9.91
2022-09-16T20:47:07.664Z,9.89
2022-09-16T20:50:10.205Z,9.87
2022-09-16T20:53:12.125Z,9.89
2022-09-16T20:56:14.721Z,9.83
2022-09-16T20:59:17.339Z,9.82
2022-09-16T21:02:20.754Z,9.84
2022-09-16T21:05:22.693Z,9.85
2022-09-16T21:08:24.726Z,9.81
2022-09-16T21:11:28.252Z,9.80
2022-09-16T21:14:32.811Z,9.75
2022-09-16T21:17:36.804Z,9.75
2022-09-16T21:20:38.304Z,9.73
2022-09-16T21:23:40.482Z,9.66
2022-09-16T21:26:44.007Z,9.64
2022-09-16T21:29:45.811Z,9.63
2022-09-16T21:32:48.764Z,9.66
2022-09-16T21:35:51.123Z,9.67
2022-09-16T21:38:52.913Z,9.63
2022-09-16T21:41:54.655Z,9.59
2022-09-16T21:44:58.812Z,9.63
2022-09-16T21:48:02.096Z,9.57
2022-09-16T21:51:08.917Z,9.59
2022-09-16T21:54:10.769Z,9.54
2022-09-16T21:57:14.510Z,9.52
2022-09-16T22:00:16.518Z,9.51
2022-09-16T22:03:19.693Z,9.57
2022-09-16T22:06:27.824Z,9.52
2022-09-16T22:09:29.996Z,9.51
2022-09-16T22:12:33.039Z,9.48
2022-09-16T22:15:34.969Z,9.53
2022-09-16T22:18:38.789Z,9.47
2022-09-16T22:21:43.030Z,9.44
2022-09-16T22:24:45.038Z,9.45
2022-09-16T22:27:46.575Z,9.40
2022-09-16T22:30:48.332Z,9.40
2022-09-16T22:33:54.653Z,9.37
2022-09-16T22:36:59.091Z,9.41
2022-09-16T22:40:01.169Z,9.41
2022-09-16T22:43:03.252Z,9.43
2022-09-16T22:46:05.237Z,9.40
2022-09-16T22:49:08.521Z,9.41
2022-09-16T22:52:10.633Z,9.46
2022-09-16T22:55:17.059Z,9.45
2022-09-16T22:58:24.155Z,9.45
2022-09-16T23:01:27.655Z,9.45
2022-09-16T23:04:31.654Z,9.41
2022-09-16T23:07:33.849Z,9.42
2022-09-16T23:10:36.893Z,9.44
2022-09-16T23:13:42.648Z,9.46
2022-09-16T23:16:44.233Z,9.48
2022-09-16T23:19:47.273Z,9.53
2022-09-16T23:22:49.042Z,9.57
2022-09-16T23:25:50.615Z,9.60
2022-09-16T23:28:52.805Z,9.59
2022-09-16T23:31:54.870Z,9.62
2022-09-16T23:34:57.707Z,9.62
2022-09-16T23:37:59.263Z,9.60
2022-09-16T23:41:03.402Z,9.65
2022-09-16T23:44:05.732Z,9.65
2022-09-16T23:47:07.423Z,9.66
2022-09-16T23:50:11.314Z,9.66
2022-09-16T23:53:13.300Z,9.72
2022-09-16T23:56:15.977Z,9.74
2022-09-16T23:59:20.421Z,9.76
